Time (yr/mo/day/hr) Wind Speed at 50 metres (Glencore Tower; km/hr) Wind Direction at 50 metres (Glencore Tower; degrees) Temperature (oC) SO2 Dispersion Conditions Mixing Height (m)
2019 11 18 13 6 113 1 Moderately unstable 926
2019 11 18 14 8 138 2 Slightly unstable 951
2019 11 18 15 7 131 1 Slightly unstable 908
2019 11 18 16 7 105 1 Neutral 363
2019 11 18 17 9 98 1 Neutral 253
2019 11 18 18 10 102 0 Slightly stable 360
2019 11 18 19 11 112 0 Slightly stable 389
2019 11 18 20 11 115 0 Slightly stable 413
2019 11 18 21 12 115 0 Neutral 513
2019 11 18 22 11 119 0 Neutral 504
2019 11 18 23 11 125 0 Neutral 496
2019 11 19 00 10 129 -1 Neutral 465
2019 11 19 01 10 136 -1 Neutral 401
2019 11 19 02 9 138 -1 Slightly stable 263
2019 11 19 03 9 129 -1 Slightly stable 297
2019 11 19 04 9 125 -2 Slightly stable 274
2019 11 19 05 8 124 -2 Slightly stable 248
2019 11 19 06 8 124 -2 Slightly stable 244
2019 11 19 07 7 124 -2 Slightly stable 170
2019 11 19 08 7 123 -2 Slightly stable 137
2019 11 19 09 7 117 -2 Neutral 285
2019 11 19 10 7 115 -2 Neutral 323
2019 11 19 11 7 117 -2 Neutral 398
2019 11 19 12 6 131 -1 Slightly unstable 370
2019 11 19 13 5 137 0 Slightly unstable 431